Time,TemperatureF,DewpointF,PressureIn,WindDirection,WindDirectionDegrees,WindSpeedMPH,WindSpeedGustMPH,Humidity,HourlyPrecipIn,Conditions,Clouds,dailyrainin,SoftwareType,DateUTC
2013-01-30 00:01:00,9.0,9.0,-100.00,NNW,342,18.0,25.0,100,-99.99,,,-99.99,,2013-01-30 07:01:00,
2013-01-30 00:11:00,9.0,9.0,-100.00,NNW,342,18.0,25.0,100,-99.99,,,-99.99,,2013-01-30 07:11:00,
2013-01-30 00:21:00,10.0,10.0,-100.00,NNW,344,22.0,30.0,100,-99.99,,,-99.99,,2013-01-30 07:21:00,
2013-01-30 00:31:00,10.0,10.0,-100.00,NNW,340,26.0,36.0,100,-99.99,,,-99.99,,2013-01-30 07:31:00,
2013-01-30 00:41:00,10.0,10.0,-100.00,NNW,340,26.0,36.0,100,-99.99,,,-99.99,,2013-01-30 07:41:00,
2013-01-30 00:52:00,10.0,10.0,-100.00,NNW,340,25.0,38.0,100,-99.99,,,-99.99,,2013-01-30 07:52:00,
2013-01-30 01:01:00,10.0,10.0,-100.00,NNW,336,22.0,31.0,100,-99.99,,,-99.99,,2013-01-30 08:01:00,
2013-01-30 01:11:00,10.0,10.0,-100.00,NNW,336,22.0,31.0,100,-99.99,,,-99.99,,2013-01-30 08:11:00,
2013-01-30 01:21:00,10.0,10.0,-100.00,NNW,330,27.0,38.0,100,-99.99,,,-99.99,,2013-01-30 08:21:00,
2013-01-30 01:32:00,10.0,10.0,-100.00,NNW,336,26.0,37.0,100,-99.99,,,-99.99,,2013-01-30 08:32:00,
2013-01-30 01:42:00,10.0,10.0,-100.00,NNW,336,26.0,37.0,100,-99.99,,,-99.99,,2013-01-30 08:42:00,
2013-01-30 01:52:00,10.0,10.0,-100.00,NNW,336,27.0,41.0,100,-99.99,,,-99.99,,2013-01-30 08:52:00,
2013-01-30 02:01:00,10.0,10.0,-100.00,NNW,336,27.0,38.0,100,-99.99,,,-99.99,,2013-01-30 09:01:00,
2013-01-30 02:11:00,10.0,10.0,-100.00,NNW,336,27.0,38.0,100,-99.99,,,-99.99,,2013-01-30 09:11:00,
2013-01-30 02:21:00,10.0,10.0,-100.00,NNW,330,21.0,31.0,100,-99.99,,,-99.99,,2013-01-30 09:21:00,
2013-01-30 02:31:00,10.0,10.0,-100.00,NW,322,16.0,27.0,100,-99.99,,,-99.99,,2013-01-30 09:31:00,
2013-01-30 02:41:00,10.0,10.0,-100.00,NW,322,16.0,27.0,100,-99.99,,,-99.99,,2013-01-30 09:41:00,
2013-01-30 02:52:00,10.0,10.0,-100.00,NW,323,17.0,26.0,100,-99.99,,,-99.99,,2013-01-30 09:52:00,
2013-01-30 03:01:00,10.0,10.0,-100.00,NW,323,17.0,26.0,100,-99.99,,,-99.99,,2013-01-30 10:01:00,
2013-01-30 03:11:00,10.0,10.0,-100.00,NW,323,17.0,26.0,100,-99.99,,,-99.99,,2013-01-30 10:11:00,
2013-01-30 03:21:00,10.0,10.0,-100.00,NNW,333,15.0,23.0,100,-99.99,,,-99.99,,2013-01-30 10:21:00,
2013-01-30 03:31:00,10.0,10.0,-100.00,NNW,332,19.0,27.0,100,-99.99,,,-99.99,,2013-01-30 10:31:00,
2013-01-30 03:41:00,10.0,10.0,-100.00,NNW,332,19.0,27.0,100,-99.99,,,-99.99,,2013-01-30 10:41:00,
2013-01-30 03:52:00,10.0,10.0,-100.00,NNW,331,17.0,23.0,100,-99.99,,,-99.99,,2013-01-30 10:52:00,
2013-01-30 04:02:00,10.0,10.0,-100.00,NNW,341,14.0,19.0,100,-99.99,,,-99.99,,2013-01-30 11:02:00,
2013-01-30 04:11:00,10.0,10.0,-100.00,NNW,341,14.0,19.0,100,-99.99,,,-99.99,,2013-01-30 11:11:00,
2013-01-30 04:22:00,11.0,11.0,-100.00,NNW,337,13.0,18.0,100,-99.99,,,-99.99,,2013-01-30 11:22:00,
2013-01-30 04:32:00,11.0,11.0,-100.00,NNW,343,10.0,13.0,100,-99.99,,,-99.99,,2013-01-30 11:32:00,
2013-01-30 04:42:00,11.0,11.0,-100.00,NNW,343,10.0,13.0,100,-99.99,,,-99.99,,2013-01-30 11:42:00,
2013-01-30 04:52:00,11.0,11.0,-100.00,North,351,8.0,10.0,100,-99.99,,,-99.99,,2013-01-30 11:52:00,
2013-01-30 05:02:00,11.0,11.0,-100.00,North,350,9.0,14.0,100,-99.99,,,-99.99,,2013-01-30 12:02:00,
2013-01-30 05:12:00,11.0,11.0,-100.00,North,350,9.0,14.0,100,-99.99,,,-99.99,,2013-01-30 12:12:00,
2013-01-30 05:22:00,11.0,11.0,-100.00,NNW,339,12.0,16.0,100,-99.99,,,-99.99,,2013-01-30 12:22:00,
2013-01-30 05:32:00,12.0,12.0,-100.00,NNW,328,18.0,29.0,100,-99.99,,,-99.99,,2013-01-30 12:32:00,
2013-01-30 05:42:00,12.0,12.0,-100.00,NNW,328,18.0,29.0,100,-99.99,,,-99.99,,2013-01-30 12:42:00,
2013-01-30 06:02:00,13.0,13.0,-100.00,NNW,335,15.0,23.0,100,-99.99,,,-99.99,,2013-01-30 13:02:00,
2013-01-30 06:12:00,13.0,13.0,-100.00,NNW,335,15.0,23.0,100,-99.99,,,-99.99,,2013-01-30 13:12:00,
2013-01-30 06:22:00,14.0,14.0,-100.00,NNW,335,16.0,23.0,100,-99.99,,,-99.99,,2013-01-30 13:22:00,
2013-01-30 06:32:00,14.0,14.0,-100.00,NNW,327,14.0,19.0,100,-99.99,,,-99.99,,2013-01-30 13:32:00,
2013-01-30 06:42:00,14.0,14.0,-100.00,NNW,327,14.0,19.0,100,-99.99,,,-99.99,,2013-01-30 13:42:00,
2013-01-30 06:53:00,15.0,15.0,-100.00,NW,321,13.0,21.0,100,-99.99,,,-99.99,,2013-01-30 13:53:00,
2013-01-30 07:02:00,16.0,16.0,-100.00,NW,324,13.0,22.0,100,-99.99,,,-99.99,,2013-01-30 14:02:00,
2013-01-30 07:11:00,16.0,16.0,-100.00,NW,324,13.0,22.0,100,-99.99,,,-99.99,,2013-01-30 14:11:00,
2013-01-30 07:22:00,16.0,16.0,-100.00,NW,319,13.0,22.0,100,-99.99,,,-99.99,,2013-01-30 14:22:00,
2013-01-30 07:32:00,16.0,16.0,-100.00,NW,322,15.0,25.0,100,-99.99,,,-99.99,,2013-01-30 14:32:00,
2013-01-30 07:42:00,16.0,16.0,-100.00,NW,322,15.0,25.0,100,-99.99,,,-99.99,,2013-01-30 14:42:00,
2013-01-30 07:53:00,17.0,17.0,-100.00,NNW,328,16.0,30.0,100,-99.99,,,-99.99,,2013-01-30 14:53:00,
2013-01-30 08:02:00,17.0,17.0,-100.00,NW,322,19.0,30.0,100,-99.99,,,-99.99,,2013-01-30 15:02:00,
2013-01-30 08:12:00,17.0,17.0,-100.00,NW,322,19.0,30.0,100,-99.99,,,-99.99,,2013-01-30 15:12:00,
2013-01-30 08:23:00,17.0,17.0,-100.00,NW,325,17.0,30.0,100,-99.99,,,-99.99,,2013-01-30 15:23:00,
2013-01-30 08:32:00,17.0,17.0,-100.00,NNW,330,15.0,27.0,100,-99.99,,,-99.99,,2013-01-30 15:32:00,
2013-01-30 08:43:00,17.0,17.0,-100.00,NNW,330,15.0,27.0,100,-99.99,,,-99.99,,2013-01-30 15:43:00,
2013-01-30 08:53:00,17.0,17.0,-100.00,NNW,330,15.0,25.0,100,-99.99,,,-99.99,,2013-01-30 15:53:00,
2013-01-30 09:03:00,17.0,17.0,-100.00,NW,323,18.0,28.0,100,-99.99,,,-99.99,,2013-01-30 16:03:00,
2013-01-30 09:12:00,17.0,17.0,-100.00,NW,323,18.0,28.0,100,-99.99,,,-99.99,,2013-01-30 16:12:00,
2013-01-30 09:22:00,18.0,18.0,-100.00,NNW,330,21.0,38.0,100,-99.99,,,-99.99,,2013-01-30 16:22:00,
2013-01-30 09:32:00,18.0,18.0,-100.00,NNW,330,18.0,31.0,100,-99.99,,,-99.99,,2013-01-30 16:32:00,
2013-01-30 09:42:00,18.0,18.0,-100.00,NNW,330,18.0,31.0,100,-99.99,,,-99.99,,2013-01-30 16:42:00,
2013-01-30 09:52:00,18.0,18.0,-100.00,NNW,339,12.0,17.0,100,-99.99,,,-99.99,,2013-01-30 16:52:00,
2013-01-30 10:02:00,18.0,18.0,-100.00,NNW,336,13.0,22.0,100,-99.99,,,-99.99,,2013-01-30 17:02:00,
2013-01-30 10:12:00,18.0,18.0,-100.00,NNW,336,13.0,22.0,100,-99.99,,,-99.99,,2013-01-30 17:12:00,
2013-01-30 10:22:00,18.0,18.0,-100.00,NNW,328,14.0,23.0,100,-99.99,,,-99.99,,2013-01-30 17:22:00,
2013-01-30 10:31:00,19.0,19.0,-100.00,NNW,330,16.0,28.0,100,-99.99,,,-99.99,,2013-01-30 17:31:00,
2013-01-30 10:42:00,19.0,19.0,-100.00,NNW,330,16.0,28.0,100,-99.99,,,-99.99,,2013-01-30 17:42:00,
2013-01-30 10:53:00,19.0,19.0,-100.00,NNW,328,16.0,28.0,100,-99.99,,,-99.99,,2013-01-30 17:53:00,
2013-01-30 11:02:00,20.0,20.0,-100.00,NNW,331,17.0,26.0,100,-99.99,,,-99.99,,2013-01-30 18:02:00,
2013-01-30 11:12:00,20.0,20.0,-100.00,NNW,331,17.0,26.0,100,-99.99,,,-99.99,,2013-01-30 18:12:00,
2013-01-30 11:22:00,19.0,19.0,-100.00,NNW,332,15.0,21.0,100,-99.99,,,-99.99,,2013-01-30 18:22:00,
2013-01-30 11:32:00,20.0,20.0,-100.00,NW,321,18.0,29.0,100,-99.99,,,-99.99,,2013-01-30 18:32:00,
2013-01-30 11:42:00,20.0,20.0,-100.00,NW,321,18.0,29.0,100,-99.99,,,-99.99,,2013-01-30 18:42:00,
2013-01-30 11:52:00,20.0,20.0,-100.00,NW,326,21.0,33.0,100,-99.99,,,-99.99,,2013-01-30 18:52:00,
2013-01-30 12:02:00,20.0,20.0,-100.00,NNW,331,18.0,26.0,100,-99.99,,,-99.99,,2013-01-30 19:02:00,
2013-01-30 12:12:00,20.0,20.0,-100.00,NNW,331,18.0,26.0,100,-99.99,,,-99.99,,2013-01-30 19:12:00,
2013-01-30 12:22:00,20.0,20.0,-100.00,NNW,341,17.0,25.0,100,-99.99,,,-99.99,,2013-01-30 19:22:00,
2013-01-30 12:32:00,20.0,20.0,-100.00,NNW,335,15.0,23.0,100,-99.99,,,-99.99,,2013-01-30 19:32:00,
2013-01-30 12:42:00,20.0,20.0,-100.00,NNW,335,15.0,23.0,100,-99.99,,,-99.99,,2013-01-30 19:42:00,
2013-01-30 12:53:00,20.0,20.0,-100.00,NNW,327,16.0,23.0,100,-99.99,,,-99.99,,2013-01-30 19:53:00,
2013-01-30 13:02:00,20.0,20.0,-100.00,NNW,337,13.0,18.0,100,-99.99,,,-99.99,,2013-01-30 20:02:00,
2013-01-30 13:11:00,20.0,20.0,-100.00,NNW,337,13.0,18.0,100,-99.99,,,-99.99,,2013-01-30 20:11:00,
2013-01-30 13:22:00,20.0,20.0,-100.00,NNW,341,13.0,22.0,100,-99.99,,,-99.99,,2013-01-30 20:22:00,
2013-01-30 13:32:00,20.0,20.0,-100.00,NNW,342,13.0,21.0,100,-99.99,,,-99.99,,2013-01-30 20:32:00,
2013-01-30 13:42:00,20.0,20.0,-100.00,NNW,342,13.0,21.0,100,-99.99,,,-99.99,,2013-01-30 20:42:00,
2013-01-30 13:53:00,20.0,20.0,-100.00,NNW,348,13.0,20.0,100,-99.99,,,-99.99,,2013-01-30 20:53:00,
2013-01-30 14:03:00,20.0,20.0,-100.00,NNW,333,13.0,23.0,100,-99.99,,,-99.99,,2013-01-30 21:03:00,
2013-01-30 14:11:00,20.0,20.0,-100.00,NNW,333,13.0,23.0,100,-99.99,,,-99.99,,2013-01-30 21:11:00,
2013-01-30 14:22:00,21.0,21.0,-100.00,NW,323,17.0,31.0,100,-99.99,,,-99.99,,2013-01-30 21:22:00,
2013-01-30 14:32:00,21.0,21.0,-100.00,NNW,341,13.0,19.0,100,-99.99,,,-99.99,,2013-01-30 21:32:00,
2013-01-30 14:42:00,21.0,21.0,-100.00,NNW,341,13.0,19.0,100,-99.99,,,-99.99,,2013-01-30 21:42:00,
2013-01-30 14:52:00,21.0,21.0,-100.00,NNW,340,16.0,21.0,100,-99.99,,,-99.99,,2013-01-30 21:52:00,
2013-01-30 15:02:00,21.0,21.0,-100.00,NNW,339,14.0,20.0,100,-99.99,,,-99.99,,2013-01-30 22:02:00,
2013-01-30 15:11:00,21.0,21.0,-100.00,NNW,339,14.0,20.0,100,-99.99,,,-99.99,,2013-01-30 22:11:00,
2013-01-30 15:22:00,21.0,21.0,-100.00,NNW,341,15.0,25.0,100,-99.99,,,-99.99,,2013-01-30 22:22:00,
2013-01-30 15:32:00,21.0,21.0,-100.00,NNW,345,11.0,19.0,100,-99.99,,,-99.99,,2013-01-30 22:32:00,
2013-01-30 15:41:00,21.0,21.0,-100.00,NNW,345,11.0,19.0,100,-99.99,,,-99.99,,2013-01-30 22:41:00,
2013-01-30 15:52:00,21.0,21.0,-100.00,NNW,340,16.0,30.0,100,-99.99,,,-99.99,,2013-01-30 22:52:00,
2013-01-30 16:02:00,21.0,21.0,-100.00,NNW,341,12.0,26.0,100,-99.99,,,-99.99,,2013-01-30 23:02:00,
2013-01-30 16:11:00,21.0,21.0,-100.00,NNW,341,12.0,26.0,100,-99.99,,,-99.99,,2013-01-30 23:11:00,
2013-01-30 16:22:00,21.0,21.0,-100.00,NNW,341,15.0,26.0,100,-99.99,,,-99.99,,2013-01-30 23:22:00,
2013-01-30 16:32:00,21.0,21.0,-100.00,NNW,338,16.0,29.0,100,-99.99,,,-99.99,,2013-01-30 23:32:00,
2013-01-30 16:42:00,21.0,21.0,-100.00,NNW,338,16.0,29.0,100,-99.99,,,-99.99,,2013-01-30 23:42:00,
2013-01-30 16:52:00,21.0,21.0,-100.00,NNW,339,11.0,20.0,100,-99.99,,,-99.99,,2013-01-30 23:52:00,
2013-01-30 17:01:00,20.0,20.0,-100.00,NNW,334,16.0,28.0,100,-99.99,,,-99.99,,2013-01-31 00:01:00,
2013-01-30 17:11:00,20.0,20.0,-100.00,NNW,334,16.0,28.0,100,-99.99,,,-99.99,,2013-01-31 00:11:00,
2013-01-30 17:21:00,20.0,20.0,-100.00,NNW,337,17.0,29.0,100,-99.99,,,-99.99,,2013-01-31 00:21:00,
2013-01-30 17:32:00,20.0,20.0,-100.00,NNW,338,14.0,24.0,100,-99.99,,,-99.99,,2013-01-31 00:32:00,
2013-01-30 17:42:00,20.0,20.0,-100.00,NNW,338,14.0,24.0,100,-99.99,,,-99.99,,2013-01-31 00:42:00,
2013-01-30 17:53:00,20.0,20.0,-100.00,NNW,330,16.0,32.0,100,-99.99,,,-99.99,,2013-01-31 00:53:00,
2013-01-30 18:02:00,20.0,20.0,-100.00,NNW,330,16.0,26.0,100,-99.99,,,-99.99,,2013-01-31 01:02:00,
2013-01-30 18:11:00,20.0,20.0,-100.00,NNW,330,16.0,26.0,100,-99.99,,,-99.99,,2013-01-31 01:11:00,
2013-01-30 18:21:00,20.0,20.0,-100.00,NNW,332,15.0,26.0,100,-99.99,,,-99.99,,2013-01-31 01:21:00,
2013-01-30 18:31:00,20.0,20.0,-100.00,NNW,332,15.0,26.0,100,-99.99,,,-99.99,,2013-01-31 01:31:00,
2013-01-30 18:41:00,20.0,20.0,-100.00,NNW,332,15.0,26.0,100,-99.99,,,-99.99,,2013-01-31 01:41:00,
2013-01-30 18:52:00,20.0,20.0,-100.00,NNW,335,16.0,35.0,100,-99.99,,,-99.99,,2013-01-31 01:52:00,
2013-01-30 19:01:00,20.0,20.0,-100.00,NW,324,19.0,32.0,100,-99.99,,,-99.99,,2013-01-31 02:01:00,
2013-01-30 19:11:00,20.0,20.0,-100.00,NW,324,19.0,32.0,100,-99.99,,,-99.99,,2013-01-31 02:11:00,
2013-01-30 19:21:00,20.0,20.0,-100.00,NW,322,22.0,38.0,100,-99.99,,,-99.99,,2013-01-31 02:21:00,
2013-01-30 19:32:00,20.0,20.0,-100.00,NW,322,22.0,38.0,100,-99.99,,,-99.99,,2013-01-31 02:32:00,
2013-01-30 19:41:00,20.0,20.0,-100.00,NW,322,22.0,38.0,100,-99.99,,,-99.99,,2013-01-31 02:41:00,
2013-01-30 20:02:00,20.0,20.0,-100.00,NNW,327,21.0,44.0,100,-99.99,,,-99.99,,2013-01-31 03:02:00,
2013-01-30 20:11:00,20.0,20.0,-100.00,NNW,327,21.0,44.0,100,-99.99,,,-99.99,,2013-01-31 03:11:00,
2013-01-30 20:21:00,20.0,20.0,-100.00,NW,325,23.0,38.0,100,-99.99,,,-99.99,,2013-01-31 03:21:00,
2013-01-30 20:32:00,20.0,20.0,-100.00,NW,323,20.0,38.0,100,-99.99,,,-99.99,,2013-01-31 03:32:00,
2013-01-30 20:41:00,20.0,20.0,-100.00,NW,323,20.0,38.0,100,-99.99,,,-99.99,,2013-01-31 03:41:00,
2013-01-30 20:52:00,20.0,20.0,-100.00,NNW,329,20.0,43.0,100,-99.99,,,-99.99,,2013-01-31 03:52:00,
2013-01-30 21:02:00,20.0,20.0,-100.00,NW,324,25.0,49.0,100,-99.99,,,-99.99,,2013-01-31 04:02:00,
2013-01-30 21:11:00,20.0,20.0,-100.00,NW,324,25.0,49.0,100,-99.99,,,-99.99,,2013-01-31 04:11:00,
2013-01-30 21:22:00,20.0,20.0,-100.00,NW,324,25.0,46.0,100,-99.99,,,-99.99,,2013-01-31 04:22:00,
2013-01-30 21:31:00,20.0,20.0,-100.00,NW,316,27.0,46.0,100,-99.99,,,-99.99,,2013-01-31 04:31:00,
2013-01-30 21:41:00,20.0,20.0,-100.00,NW,316,27.0,46.0,100,-99.99,,,-99.99,,2013-01-31 04:41:00,
2013-01-30 21:52:00,20.0,20.0,-100.00,NW,319,23.0,41.0,100,-99.99,,,-99.99,,2013-01-31 04:52:00,
2013-01-30 22:03:00,20.0,20.0,-100.00,NW,325,23.0,44.0,100,-99.99,,,-99.99,,2013-01-31 05:03:00,
2013-01-30 22:11:00,20.0,20.0,-100.00,NW,325,23.0,44.0,100,-99.99,,,-99.99,,2013-01-31 05:11:00,
2013-01-30 22:22:00,20.0,20.0,-100.00,NNW,329,16.0,40.0,100,-99.99,,,-99.99,,2013-01-31 05:22:00,
2013-01-30 22:31:00,20.0,20.0,-100.00,NNW,329,16.0,40.0,100,-99.99,,,-99.99,,2013-01-31 05:31:00,
2013-01-30 22:41:00,20.0,20.0,-100.00,NNW,329,16.0,40.0,100,-99.99,,,-99.99,,2013-01-31 05:41:00,